»·PEaware :: N137AL KCMA-KSNA

N137AL :: KCMA-KSNA

FLIGHT INFORMATION

Flight Status: Arrived
Operator: Privately registered:
United States
More flights under this callsign
Pilot: Aaron K. (32509)
Aircraft: CESSNA 172 SKYHAWK
(C172)
More flights by this aircraft type
Origin: KCMA Camarillo
United States
Destination: KSNA John Wayne-Orange Co
United States
More flights between these airports :: More routes between these airports
Route:
File this flight plan on PilotEdge
Remarks:
Altitude:
(Current/Filed)
5,500ft
Speed:
(Current/Filed)
110kts
Departed: 13-Jan-21 07:27 PM
Arrived: 13-Jan-21 08:12 PM
Distance/Time
Traveled:
69nm/0:45
Distance/Time
To Go:
Arrived

Flight Plot

Page will automatically refresh every two minutes.


Map Options




Map Legend


Flown Route
Filed Route
Departure Airport
Arrival Airport
Navaid (VOR, NDB)
Fix

Horizontal Profiles

Position Reports

Time Latitude Longitude Heading Altitude Ground
Speed
13-Jan-21 19:07 34.210772 -119.095415 359 64ft 0kts
13-Jan-21 19:08 34.210772 -119.095415 359 64ft 0kts
13-Jan-21 19:09 34.210772 -119.095415 359 64ft 0kts
13-Jan-21 19:10 34.210772 -119.095415 359 64ft 0kts
13-Jan-21 19:11 34.210772 -119.095415 359 64ft 0kts
13-Jan-21 19:12 34.210772 -119.095415 359 64ft 0kts
13-Jan-21 19:13 33.938012 -118.428029 311 104ft 0kts
13-Jan-21 19:14 33.938012 -118.428029 311 104ft 0kts
13-Jan-21 19:15 33.938012 -118.428029 311 104ft 0kts
13-Jan-21 19:17 34.210772 -119.095415 359 64ft 0kts
13-Jan-21 19:18 34.210772 -119.095415 359 64ft 0kts
13-Jan-21 19:19 34.210772 -119.095415 359 64ft 0kts
13-Jan-21 19:20 34.210772 -119.095415 359 64ft 0kts
13-Jan-21 19:21 34.210773 -119.095415 359 64ft 0kts
13-Jan-21 19:23 34.210961 -119.090775 89 67ft 27kts
13-Jan-21 19:24 34.210937 -119.085176 89 73ft 15kts
13-Jan-21 19:25 34.212839 -119.084625 359 76ft 0kts
13-Jan-21 19:26 34.213638 -119.084980 283 76ft 12kts
13-Jan-21 19:27 34.215686 -119.106619 338 696ft 76kts
13-Jan-21 19:28 34.228677 -119.093758 80 1470ft 90kts
13-Jan-21 19:29 34.229478 -119.058108 89 1892ft 115kts
13-Jan-21 19:30 34.228709 -119.019972 89 2460ft 110kts
13-Jan-21 19:31 34.227715 -118.983541 90 3056ft 105kts
13-Jan-21 19:32 34.226473 -118.951753 90 3638ft 86kts
13-Jan-21 19:33 34.225023 -118.925404 90 4215ft 69kts
13-Jan-21 19:34 34.223377 -118.903322 90 4811ft 66kts
13-Jan-21 19:35 34.222104 -118.882105 88 5400ft 59kts
13-Jan-21 19:36 34.217953 -118.854252 105 5539ft 115kts
13-Jan-21 19:37 34.209849 -118.815187 96 5550ft 121kts
13-Jan-21 19:38 34.203602 -118.775748 96 5550ft 116kts
13-Jan-21 19:38 34.198487 -118.744098 96 5552ft 114kts
13-Jan-21 19:40 34.191301 -118.699803 96 5518ft 114kts
13-Jan-21 19:41 34.185155 -118.662207 96 5523ft 115kts
13-Jan-21 19:41 34.179897 -118.629858 97 5530ft 119kts
13-Jan-21 19:42 34.173472 -118.590314 97 5535ft 120kts
13-Jan-21 19:43 34.166974 -118.550541 97 5540ft 120kts
13-Jan-21 19:44 34.143894 -118.524928 157 5537ft 127kts
13-Jan-21 19:45 34.110722 -118.509966 158 5544ft 127kts
13-Jan-21 19:46 34.077206 -118.495175 159 5521ft 128kts
13-Jan-21 19:47 34.043706 -118.480417 159 5529ft 128kts
13-Jan-21 19:48 34.010329 -118.465349 160 5539ft 128kts
13-Jan-21 19:49 33.977036 -118.449778 160 5550ft 128kts
13-Jan-21 19:50 33.943563 -118.433958 162 5524ft 128kts
13-Jan-21 19:51 33.914527 -118.409324 140 5536ft 129kts
13-Jan-21 19:52 33.887379 -118.381082 140 5544ft 129kts
13-Jan-21 19:53 33.860001 -118.352778 140 5549ft 129kts
13-Jan-21 19:54 33.832706 -118.324224 139 5541ft 130kts
13-Jan-21 19:55 33.805152 -118.294990 139 5473ft 132kts
13-Jan-21 19:56 33.777866 -118.265879 140 5464ft 130kts
13-Jan-21 19:57 33.750862 -118.236638 140 5458ft 130kts
13-Jan-21 19:58 33.737599 -118.200810 77 5443ft 129kts
13-Jan-21 19:59 33.719157 -118.165853 130 5430ft 127kts
13-Jan-21 20:00 33.699479 -118.127496 120 4918ft 139kts
13-Jan-21 20:01 33.682256 -118.084677 117 4100ft 145kts
13-Jan-21 20:02 33.665978 -118.040610 110 3199ft 144kts
13-Jan-21 20:03 33.653997 -117.999626 110 3029ft 117kts
13-Jan-21 20:04 33.642598 -117.964233 110 3022ft 111kts
13-Jan-21 20:05 33.656823 -117.933727 44 2706ft 122kts
13-Jan-21 20:06 33.680061 -117.903867 47 1823ft 112kts
13-Jan-21 20:07 33.702785 -117.875188 32 1671ft 111kts
13-Jan-21 20:08 33.721196 -117.854213 104 1752ft 79kts
13-Jan-21 20:09 33.701673 -117.851941 208 1226ft 84kts
13-Jan-21 20:10 33.683335 -117.863978 207 183ft 64kts
13-Jan-21 20:11 33.678080 -117.868314 298 60ft 0kts
13-Jan-21 20:12 33.678080 -117.868314 298 60ft 0kts
13-Jan-21 20:13 33.678135 -117.868448 289 60ft 0kts
13-Jan-21 20:14 33.676341 -117.869912 226 60ft 2kts
13-Jan-21 20:15 33.676237 -117.870038 223 60ft 0kts
13-Jan-21 20:16 33.676237 -117.870038 223 60ft 0kts

Navigation Log

Ident Type
Flight plan parsing failed, navigation log unavailable